Flight Track Log - Related Links

Times and Time Zones

All times are in EDT time to prevent confusion due to time zone crossing. See the ASQ6044 flight status page for this flight to view local times or setup timezone preferences in your user account.

Time Position Orientation Groundspeed Altitude Reporting Facility
EDT Latitude Longitude Course Direction KTS MPH feet Rate Location/Type
Mon 09:22:06 AM 41.9167 -87.9167 90° East 185 213 3,200  Level Chicago TRACON
Mon 09:23:00 AM 41.9167 -87.8500 90° East 225 259 4,400 1,259 Climbing Chicago TRACON
Mon 09:23:27 AM 41.9222 -87.8178 77° East 239 275 4,900 818 Climbing Chicago Center
Mon 09:24:28 AM 41.9547 -87.7306 63° Northeast 268 308 5,600 1,426 Climbing Chicago Center
Mon 09:25:29 AM 41.9817 -87.6383 69° East 276 318 7,800 2,262 Climbing Chicago Center
Mon 09:26:00 AM 41.9421 -87.2552 95° East  Level FlightAware Approximate
Mon 09:26:30 AM 41.9750 -87.5314 95° East 285 328 10,200  Level Chicago Center
Mon 09:27:00 AM 41.9333 -87.1251 90° East  Level FlightAware Approximate
Mon 09:27:31 AM 41.9681 -87.4189 95° East 300 345 12,000  Level Chicago Center
Mon 09:28:32 AM 41.9603 -87.3000 95° East 315 362 13,500 1,230 Climbing Chicago Center
Mon 09:29:33 AM 41.9492 -87.1364 95° East 365 420 14,500 1,131 Climbing Chicago Center
Mon 09:30:34 AM 41.9461 -86.9961 92° East 377 434 15,800 1,279 Climbing Chicago Center
Mon 09:31:35 AM 41.9475 -86.8511 89° East 388 447 17,100 1,131 Climbing Chicago Center
Mon 09:32:36 AM 41.9503 -86.7042 88° East 393 452 18,100 1,033 Climbing Chicago Center
Mon 09:33:37 AM 41.9522 -86.5703 89° East 398 458 19,200 1,131 Climbing Chicago Center
Mon 09:34:38 AM 41.9531 -86.4194 90° East 402 463 20,400 1,317 Climbing Chicago Center
Mon 09:35:40 AM 41.9542 -86.2364 89° East 410 472 21,900 1,317 Climbing Chicago Center
Mon 09:36:41 AM 41.9183 -86.0925 108° East 407 468 23,100 1,230 Climbing Chicago Center
Mon 09:37:42 AM 41.8472 -85.9758 129° Southeast 406 467 24,400 934 Climbing Chicago Center
Mon 09:38:43 AM 41.7625 -85.8725 138° Southeast 411 473 25,000 295 Climbing Chicago Center
Mon 09:39:44 AM 41.6728 -85.7619 137° Southeast 436 502 25,000  Level Chicago Center
Mon 09:40:45 AM 41.5789 -85.6497 138° Southeast 458 527 25,000  Level Chicago Center
Mon 09:41:46 AM 41.4850 -85.5342 137° Southeast 468 539 25,000  Level Chicago Center
Mon 09:42:47 AM 41.3694 -85.3931 137° Southeast 477 549 25,000  Level Chicago Center
Mon 09:43:49 AM 41.2728 -85.2764 138° Southeast 476 548 25,000  Level Chicago Center
Mon 09:44:50 AM 41.1731 -85.1575 138° Southeast 480 552 25,000  Level Chicago Center
Mon 09:45:51 AM 41.0747 -85.0397 138° Southeast 481 554 25,000 -49 Level Chicago Center
Mon 09:46:52 AM 40.9775 -84.9242 138° Southeast 474 545 24,900 -829 Descending Chicago Center
Mon 09:47:54 AM 40.8794 -84.8094 138° Southeast 473 544 23,300 -927 Descending Chicago Center
Mon 09:48:55 AM 40.8186 -84.6658 119° Southeast 456 525 23,000 -157 Descending Chicago Center
Mon 09:49:49 AM 40.7753 -84.5294 113° Southeast 456 525 23,000  Level Indianapolis Center
Mon 09:50:51 AM 40.7172 -84.3411 112° Southeast 468 539 23,000  Level Indianapolis Center
Mon 09:51:53 AM 40.6653 -84.1764 113° Southeast 478 550 23,000 -49 Level Indianapolis Center
Mon 09:52:54 AM 40.6144 -84.0144 112° Southeast 475 547 22,900 -1,317 Descending Indianapolis Center
Mon 09:53:56 AM 40.5650 -83.8578 113° Southeast 462 532 20,300 -2,468 Descending Indianapolis Center
Mon 09:54:58 AM 40.5161 -83.7031 113° Southeast 456 525 17,800 -2,824 Descending Indianapolis Center
Mon 09:55:55 AM 40.4681 -83.5583 114° Southeast 423 487 14,700 -3,429 Descending Indianapolis Center
Mon 09:56:50 AM 40.4267 -83.4328 113° Southeast 403 464 11,400 -1,930 Descending Indianapolis Center
Mon 09:57:50 AM 40.3597 -83.3453 135° Southeast 322 371 11,000 -893 Descending Indianapolis Center
Mon 09:58:51 AM 40.2908 -83.2822 145° Southeast 293 337 9,600 -1,342 Descending Indianapolis Center
Mon 09:59:06 AM 40.2839 -83.2739 138° Southeast 311 358 9,300 -1,475 Descending Indianapolis Center
Mon 09:59:52 AM 40.2278 -83.2256 147° Southeast 279 321 8,100 -1,452 Descending Indianapolis Center
Mon 10:00:08 AM 40.2203 -83.2172 140° Southeast 280 322 7,800 -1,600 Descending Indianapolis Center
Mon 10:00:52 AM 40.1589 -83.1628 146° Southeast 282 325 6,500 -1,645 Descending Indianapolis Center
Mon 10:01:10 AM 40.1442 -83.1486 144° Southeast 281 323 6,100 -1,377 Descending Indianapolis Center
Mon 10:01:53 AM 40.1017 -83.1122 147° Southeast 267 307 5,100 -1,452 Descending Indianapolis Center
Mon 10:02:12 AM 40.0828 -83.0939 143° Southeast 266 306 4,600 -1,475 Descending Indianapolis Center
Mon 10:02:54 AM 40.0428 -83.0564 144° Southeast 237 273 3,600 -1,475 Descending Indianapolis Center
Mon 10:03:13 AM 40.0275 -83.0450 150° Southeast 246 283 3,100 -1,200 Descending Indianapolis Center
Mon 10:03:54 AM 40.0083 -83.0117 127° Southeast 156 180 2,400 -1,024 Descending Indianapolis Center

Login

Don't have an account? Register now (free) for customized features, flight alerts, and more!